11°C Temp
-15°C Dewpoint
15% Humidity
Temperature
8 KM/H
5 MPH
4 KTS
350°
Due North

Wind Speed
Clear
Conditions
Pressure 998.92 (hPa) - 29.5 (in)
Visibility 6.2 (mi) - 10.0 (km)

Current Conditions
LIMC
Location Malpensa 50(km)
Metar :LIMC 241520Z 35004KT CAVOK 11/M15 Q0999 NOSIG
Sun 24th January 16:20 pm

Airport
  Metar Aviation API Data Provided by https://www.checkwx.com/ PHP scripts by weather34.com ©2021